| time (UTC) | temp C | wind direction | speed KPH | gust KPH | rain 1hr cm | rain 24hr cm | rain mn cm | humidity % | barometer mb |
| 20260507130055 | 12 | 294 | 8.0 | 16.1 | 0.00 | 0.13 | 0.00 | 75 | 1015.9 |
| 20260507124553 | 12 | 290 | 4.8 | 9.7 | 0.00 | 0.13 | 0.00 | 77 | 1015.9 |
| 20260507123049 | 12 | 338 | 4.8 | 12.9 | 0.00 | 0.13 | 0.00 | 77 | 1015.8 |
| 20260507121552 | 11 | 336 | 4.8 | 12.9 | 0.00 | 0.13 | 0.00 | 77 | 1015.7 |
| 20260507120049 | 12 | 17 | 3.2 | 12.9 | 0.00 | 0.13 | 0.00 | 77 | 1015.7 |
| 20260507114545 | 12 | 331 | 1.6 | 11.3 | 0.00 | 0.13 | 0.00 | 75 | 1015.6 |
| 20260507113051 | 12 | 12 | 1.6 | 9.7 | 0.00 | 0.13 | 0.00 | 77 | 1015.6 |
| 20260507111550 | 12 | 348 | 3.2 | 12.9 | 0.00 | 0.13 | 0.00 | 79 | 1015.5 |
| 20260507110053 | 11 | 31 | 3.2 | 12.9 | 0.00 | 0.13 | 0.00 | 79 | 1015.6 |
| 20260507104553 | 11 | 333 | 4.8 | 12.9 | 0.00 | 0.13 | 0.00 | 78 | 1015.6 |
| 20260507103048 | 11 | 5 | 3.2 | 9.7 | 0.00 | 0.13 | 0.00 | 79 | 1015.4 |
| 20260507101602 | 11 | 26 | 4.8 | 12.9 | 0.00 | 0.13 | 0.00 | 80 | 1015.5 |
| 20260507100053 | 11 | 0 | 3.2 | 11.3 | 0.00 | 0.13 | 0.00 | 81 | 1015.4 |
| 20260507094556 | 10 | 328 | 4.8 | 12.9 | 0.00 | 0.13 | 0.00 | 81 | 1015.4 |
| 20260507093048 | 10 | 308 | 6.4 | 14.5 | 0.00 | 0.13 | 0.00 | 81 | 1015.2 |
| 20260507091600 | 11 | 292 | 4.8 | 11.3 | 0.00 | 0.13 | 0.00 | 81 | 1015.0 |
| 20260507090107 | 10 | 43 | 4.8 | 11.3 | 0.00 | 0.13 | 0.00 | 83 | 1014.9 |
| 20260507084547 | 10 | 305 | 4.8 | 12.9 | 0.00 | 0.13 | 0.00 | 83 | 1014.9 |
| 20260507083046 | 10 | 325 | 1.6 | 8.0 | 0.00 | 0.13 | 0.00 | 84 | 1014.8 |
| 20260507081552 | 10 | 9 | 1.6 | 14.5 | 0.00 | 0.13 | 0.00 | 83 | 1014.7 |
| 20260507080049 | 10 | 292 | 6.4 | 16.1 | 0.00 | 0.13 | 0.00 | 82 | 1014.5 |
| 20260507074550 | 10 | 323 | 3.2 | 12.9 | 0.00 | 0.13 | 0.00 | 84 | 1014.4 |
| 20260507073058 | 10 | 331 | 6.4 | 12.9 | 0.00 | 0.13 | 0.00 | 84 | 1014.1 |
| 20260507071546 | 10 | 334 | 1.6 | 4.8 | 0.00 | 0.13 | 0.00 | 85 | 1014.0 |
| 20260507070119 | 10 | 290 | 3.2 | 6.4 | 0.00 | 0.13 | 0.00 | 85 | 1013.8 |
| 20260507064548 | 10 | 314 | 0.0 | 9.7 | 0.00 | 0.13 | 0.00 | 85 | 1013.8 |
| 20260507063042 | 10 | 0 | 0.0 | 4.8 | 0.00 | 0.13 | 0.00 | 86 | 1013.6 |
| 20260507061546 | 10 | 339 | 1.6 | 8.0 | 0.00 | 0.13 | 0.00 | 86 | 1013.4 |
| 20260507060050 | 10 | 0 | 1.6 | 6.4 | 0.00 | 0.13 | 0.00 | 86 | 1013.2 |
| 20260507054551 | 10 | 302 | 3.2 | 9.7 | 0.00 | 0.13 | 0.00 | 86 | 1013.1 |
| 20260507053045 | 10 | 290 | 3.2 | 11.3 | 0.00 | 0.13 | 0.00 | 85 | 1013.0 |
| 20260507051544 | 10 | 301 | 9.7 | 14.5 | 0.00 | 0.13 | 0.00 | 86 | 1012.8 |
| 20260507050050 | 10 | 287 | 6.4 | 11.3 | 0.00 | 0.13 | 0.00 | 87 | 1012.6 |
| 20260507044549 | 9 | 289 | 3.2 | 6.4 | 0.00 | 0.13 | 0.00 | 87 | 1012.4 |
| 20260507043052 | 9 | 299 | 3.2 | 6.4 | 0.00 | 0.13 | 0.00 | 87 | 1012.2 |
| 20260507041545 | 9 | 306 | 0.0 | 9.7 | 0.00 | 0.13 | 0.00 | 87 | 1012.0 |
| 20260507040050 | 9 | 293 | 6.4 | 12.9 | 0.00 | 0.13 | 0.00 | 87 | 1011.9 |
| 20260507034547 | 9 | 298 | 6.4 | 12.9 | 0.00 | 0.13 | 0.00 | 87 | 1011.9 |
| 20260507033049 | 9 | 302 | 4.8 | 11.3 | 0.00 | 0.13 | 0.00 | 87 | 1011.9 |
| 20260507031548 | 9 | 306 | 3.2 | 6.4 | 0.00 | 0.13 | 0.00 | 87 | 1011.6 |
| 20260507030105 | 9 | 321 | 1.6 | 8.0 | 0.00 | 0.13 | 0.00 | 87 | 1011.5 |
| 20260507024551 | 9 | 321 | 1.6 | 12.9 | 0.00 | 0.13 | 0.00 | 87 | 1011.5 |
| 20260507023052 | 9 | 315 | 6.4 | 14.5 | 0.00 | 0.13 | 0.00 | 87 | 1011.4 |
| 20260507021551 | 10 | 315 | 3.2 | 14.5 | 0.00 | 0.13 | 0.00 | 86 | 1011.2 |
| 20260507020052 | 10 | 325 | 4.8 | 16.1 | 0.00 | 0.13 | 0.00 | 86 | 1011.1 |
| 20260507014608 | 10 | 313 | 3.2 | 11.3 | 0.00 | 0.13 | 0.00 | 86 | 1011.1 |
| 20260507013052 | 10 | 307 | 1.6 | 8.0 | 0.00 | 0.13 | 0.00 | 86 | 1010.9 |
| 20260507011546 | 10 | 327 | 3.2 | 11.3 | 0.00 | 0.13 | 0.00 | 86 | 1011.0 |
| 20260507010050 | 10 | 360 | 1.6 | 9.7 | 0.00 | 0.13 | 0.00 | 86 | 1010.9 |
| 20260507004547 | 10 | 320 | 1.6 | 14.5 | 0.00 | 0.13 | 0.00 | 86 | 1010.9 |
| 20260507003047 | 10 | 0 | 1.6 | 16.1 | 0.00 | 0.13 | 0.00 | 86 | 1010.8 |
| 20260507001552 | 10 | 306 | 3.2 | 12.9 | 0.00 | 0.13 | 0.00 | 86 | 1010.7 |
| 20260507000048 | 10 | 311 | 1.6 | 8.0 | 0.00 | 0.13 | 0.00 | 86 | 1010.9 |
| 20260506234545 | 10 | 0 | 0.0 | 4.8 | 0.00 | 0.13 | 0.00 | 86 | 1010.8 |
| 20260506233047 | 10 | 0 | 0.0 | 6.4 | 0.00 | 0.13 | 0.00 | 86 | 1010.7 |
| 20260506231544 | 10 | 318 | 3.2 | 8.0 | 0.00 | 0.13 | 0.00 | 86 | 1010.6 |
| 20260506230057 | 10 | 355 | 0.0 | 9.7 | 0.00 | 0.13 | 0.00 | 87 | 1010.6 |
| 20260506224550 | 10 | 341 | 3.2 | 12.9 | 0.00 | 0.13 | 0.00 | 87 | 1010.4 |
| 20260506223046 | 10 | 342 | 4.8 | 17.7 | 0.00 | 0.13 | 0.00 | 86 | 1010.3 |
| 20260506221548 | 10 | 348 | 4.8 | 12.9 | 0.00 | 0.13 | 0.00 | 87 | 1010.1 |
| 20260506220047 | 10 | 312 | 4.8 | 16.1 | 0.00 | 0.13 | 0.00 | 87 | 1010.1 |
| 20260506214546 | 11 | 331 | 4.8 | 14.5 | 0.00 | 0.28 | 0.13 | 87 | 1009.9 |
| 20260506213053 | 11 | 331 | 1.6 | 8.0 | 0.00 | 0.28 | 0.13 | 87 | 1009.9 |
| 20260506211547 | 11 | 318 | 4.8 | 14.5 | 0.00 | 0.28 | 0.13 | 87 | 1009.6 |
| 20260506210050 | 11 | 309 | 6.4 | 17.7 | 0.00 | 0.28 | 0.13 | 86 | 1009.6 |
| 20260506204545 | 11 | 317 | 4.8 | 12.9 | 0.00 | 0.51 | 0.13 | 86 | 1009.4 |
| 20260506203051 | 11 | 310 | 3.2 | 11.3 | 0.00 | 0.51 | 0.13 | 87 | 1009.3 |
| 20260506201604 | 11 | 317 | 3.2 | 14.5 | 0.00 | 0.51 | 0.13 | 87 | 1009.3 |
| 20260506200051 | 12 | 0 | 1.6 | 8.0 | 0.00 | 0.51 | 0.13 | 87 | 1009.0 |
| 20260506194553 | 12 | 330 | 3.2 | 8.0 | 0.00 | 0.51 | 0.13 | 87 | 1008.8 |
| 20260506193051 | 12 | 314 | 1.6 | 8.0 | 0.00 | 0.51 | 0.13 | 86 | 1008.6 |
| 20260506191548 | 12 | 304 | 4.8 | 12.9 | 0.00 | 0.51 | 0.13 | 86 | 1008.4 |
| 20260506190051 | 12 | 333 | 3.2 | 17.7 | 0.00 | 0.51 | 0.13 | 87 | 1008.3 |
| 20260506184554 | 12 | 333 | 0.0 | 11.3 | 0.00 | 0.51 | 0.13 | 89 | 1008.1 |
| 20260506183047 | 12 | 349 | 1.6 | 11.3 | 0.03 | 0.51 | 0.13 | 88 | 1007.8 |
| 20260506181606 | 12 | 308 | 1.6 | 11.3 | 0.08 | 0.51 | 0.13 | 88 | 1007.7 |
| 20260506180048 | 12 | 317 | 3.2 | 11.3 | 0.08 | 0.51 | 0.13 | 88 | 1007.5 |
| 20260506174549 | 13 | 300 | 4.8 | 12.9 | 0.08 | 0.51 | 0.13 | 87 | 1007.5 |
| 20260506173112 | 13 | 275 | 11.3 | 16.1 | 0.08 | 0.46 | 0.08 | 86 | 1007.2 |
| 20260506171556 | 13 | 265 | 8.0 | 20.9 | 0.05 | 0.43 | 0.05 | 83 | 1007.1 |
| 20260506170050 | 15 | 259 | 14.5 | 24.1 | 0.05 | 0.43 | 0.05 | 78 | 1006.9 |
| 20260506164547 | 15 | 252 | 11.3 | 27.4 | 0.03 | 0.41 | 0.03 | 75 | 1006.6 |
| 20260506163102 | 17 | 237 | 6.4 | 12.9 | 0.00 | 0.36 | 0.00 | 66 | 1006.2 |
| 20260506161546 | 17 | 208 | 6.4 | 14.5 | 0.00 | 0.36 | 0.00 | 64 | 1006.1 |
| 20260506160046 | 17 | 205 | 3.2 | 9.7 | 0.00 | 0.36 | 0.00 | 64 | 1006.1 |
| 20260506154552 | 17 | 266 | 6.4 | 14.5 | 0.00 | 0.36 | 0.00 | 63 | 1006.3 |
| 20260506153048 | 17 | 252 | 1.6 | 17.7 | 0.00 | 0.36 | 0.00 | 62 | 1006.4 |
| 20260506151549 | 17 | 287 | 3.2 | 19.3 | 0.00 | 0.36 | 0.00 | 63 | 1006.3 |
| 20260506150055 | 17 | 217 | 8.0 | 17.7 | 0.00 | 0.36 | 0.00 | 61 | 1006.3 |
| 20260506144550 | 17 | 248 | 9.7 | 19.3 | 0.00 | 0.53 | 0.00 | 62 | 1006.0 |
| 20260506143051 | 17 | 252 | 9.7 | 22.5 | 0.00 | 0.53 | 0.00 | 61 | 1006.0 |
| 20260506141553 | 17 | 246 | 9.7 | 25.7 | 0.00 | 0.53 | 0.00 | 59 | 1006.0 |
| 20260506140058 | 17 | 187 | 11.3 | 25.7 | 0.00 | 0.53 | 0.00 | 58 | 1006.0 |
| 20260506134545 | 18 | 240 | 12.9 | 25.7 | 0.00 | 0.58 | 0.00 | 61 | 1005.9 |
| 20260506133047 | 17 | 277 | 14.5 | 22.5 | 0.00 | 0.58 | 0.00 | 63 | 1006.1 |
| 20260506131545 | 17 | 231 | 14.5 | 20.9 | 0.00 | 0.58 | 0.00 | 63 | 1006.0 |